Strona główna
METAR-TAF:

METAR-TAF

Lotnisko :

Greater Kankakee Airport

Kankakee, Illinois, Stany Zjednoczone

Szerokość geograficzna: 41-04-17N, Długość geograficzna: 087-50-47W, wysokość: 192 m

Aktualna obserwacja pogody

Raport powstał 23 minut temu, godzina 06:35 UTC
Wiatr 5 kt od wschodnio-południowy wschód
Temperatura -7°C
Wilgotność 86%
Ciśnienie 1032 hPa
Widzialność: 16.1 km
bezchmurnie

METAR: KIKK 120635Z AUTO 12005KT 10SM CLR M07/M09 A3047 RMK AO2 T10751095

czas: 00:58 (06:58 UTC)


TAF: brakujący

Obserwacja i prognoza pogody dla ponad 4000 lotnisk (raport METAR i TAF).

Dostępne stacje oznaczono żółtymi i czerwonymi punktami na mapie.

Najedź kursorem aby zobaczyć nazwę stacji.

Kliknij aby zobaczyć obserwacje i prognozy pogody.

Aby zmienić mapę: kliknij na zielony przycisk z czarnym krzyżykiem, aby powiększyć; na zielony przycisk z myślnikiem, aby pomniejszyć; na zielone strzałki, aby przejść do map sąsiednich.


METAR-TAF: